createdAt,value
2019-05-20T00:01:49.091Z,17.51
2019-05-20T00:03:50.461Z,17.66
2019-05-20T00:05:51.936Z,17.57
2019-05-20T00:07:53.451Z,17.48
2019-05-20T00:09:54.847Z,17.42
2019-05-20T00:11:56.267Z,17.37
2019-05-20T00:13:57.628Z,17.46
2019-05-20T00:15:59.027Z,17.64
2019-05-20T00:18:00.454Z,17.44
2019-05-20T00:20:06.575Z,17.44
2019-05-20T00:22:08.017Z,17.39
2019-05-20T00:24:09.432Z,17.23
2019-05-20T00:26:10.801Z,17.26
2019-05-20T00:28:12.194Z,17.31
2019-05-20T00:30:14.411Z,17.38
2019-05-20T00:32:15.772Z,17.40
2019-05-20T00:34:17.166Z,17.30
2019-05-20T00:36:18.544Z,17.30
2019-05-20T00:38:19.927Z,17.42
2019-05-20T00:40:21.331Z,17.33
2019-05-20T00:42:22.692Z,17.14
2019-05-20T00:44:24.063Z,17.08
2019-05-20T00:46:25.487Z,17.11
2019-05-20T00:48:26.880Z,17.17
2019-05-20T00:50:28.353Z,17.27
2019-05-20T00:52:29.713Z,17.34
2019-05-20T00:54:31.120Z,17.06
2019-05-20T00:56:32.494Z,17.02
2019-05-20T00:58:33.887Z,16.98
2019-05-20T01:00:35.848Z,16.96
2019-05-20T01:02:37.263Z,16.99
2019-05-20T01:04:38.629Z,16.93
2019-05-20T01:06:40.051Z,17.12
2019-05-20T01:08:41.409Z,17.01
2019-05-20T01:10:42.776Z,16.85
2019-05-20T01:12:44.191Z,16.79
2019-05-20T01:14:45.558Z,16.88
2019-05-20T01:16:46.960Z,16.94
2019-05-20T01:18:48.323Z,16.95
2019-05-20T01:20:51.188Z,16.97
2019-05-20T01:22:52.621Z,16.86
2019-05-20T01:24:54.021Z,16.80
2019-05-20T01:26:55.388Z,16.72
2019-05-20T01:28:56.986Z,16.86
2019-05-20T01:30:58.354Z,16.80
2019-05-20T01:33:12.822Z,16.78
2019-05-20T01:35:04.929Z,16.77
2019-05-20T01:37:06.411Z,16.72
2019-05-20T01:39:07.794Z,16.70
2019-05-20T01:41:09.168Z,16.68
2019-05-20T01:43:10.579Z,16.66
2019-05-20T01:45:13.154Z,16.67
2019-05-20T01:47:14.543Z,16.68
2019-05-20T01:49:15.935Z,16.67
2019-05-20T01:51:17.322Z,16.83
2019-05-20T01:53:18.684Z,16.60
2019-05-20T01:55:20.190Z,16.59
2019-05-20T01:57:21.554Z,16.45
2019-05-20T01:59:22.942Z,16.42
2019-05-20T02:01:24.400Z,16.42
2019-05-20T02:03:31.851Z,16.27
2019-05-20T02:05:29.100Z,16.26
2019-05-20T02:07:30.468Z,16.21
2019-05-20T02:09:31.870Z,16.30
2019-05-20T02:11:33.236Z,16.23
2019-05-20T02:13:51.531Z,16.25
2019-05-20T02:15:57.464Z,16.33
2019-05-20T02:17:58.839Z,16.32
2019-05-20T02:20:00.239Z,16.16
2019-05-20T02:22:01.609Z,16.13
2019-05-20T02:24:03.506Z,16.30
2019-05-20T02:26:05.130Z,16.20
2019-05-20T02:28:06.560Z,16.09
2019-05-20T02:30:08.791Z,16.03
2019-05-20T02:32:10.151Z,15.97
2019-05-20T02:34:11.567Z,15.98
2019-05-20T02:36:12.988Z,16.11
2019-05-20T02:38:14.348Z,16.05
2019-05-20T02:40:15.935Z,15.98
2019-05-20T02:42:17.334Z,16.19
2019-05-20T02:44:18.751Z,16.06
2019-05-20T02:46:20.149Z,16.24
2019-05-20T02:48:21.535Z,16.24
2019-05-20T02:50:22.893Z,16.03
2019-05-20T02:52:24.304Z,15.93
2019-05-20T02:54:25.710Z,15.95
2019-05-20T02:56:28.266Z,15.98
2019-05-20T02:58:29.667Z,16.12
2019-05-20T03:00:31.011Z,16.15
2019-05-20T03:02:32.406Z,16.13
2019-05-20T03:04:33.771Z,15.99
2019-05-20T03:06:35.164Z,16.02
2019-05-20T03:08:36.592Z,15.90
2019-05-20T03:10:37.958Z,16.14
2019-05-20T03:12:39.308Z,16.01
2019-05-20T03:14:40.699Z,16.16
2019-05-20T03:16:42.048Z,16.06
2019-05-20T03:18:43.418Z,15.99
2019-05-20T03:20:44.805Z,16.03
2019-05-20T03:22:46.400Z,15.94
2019-05-20T03:24:47.802Z,15.96
2019-05-20T03:26:49.156Z,15.92
2019-05-20T03:28:50.553Z,15.89
2019-05-20T03:30:51.977Z,15.80
2019-05-20T03:32:53.445Z,15.78
2019-05-20T03:35:00.111Z,15.90
2019-05-20T03:36:58.085Z,15.99
2019-05-20T03:38:59.448Z,16.00
2019-05-20T03:41:00.801Z,15.85
2019-05-20T03:43:02.201Z,15.95
2019-05-20T03:45:05.704Z,16.06
2019-05-20T03:47:07.163Z,16.00
2019-05-20T03:49:08.577Z,15.94
2019-05-20T03:51:09.940Z,16.02
2019-05-20T03:53:11.357Z,16.16
2019-05-20T03:55:13.050Z,16.14
2019-05-20T03:57:14.441Z,16.21
2019-05-20T03:59:15.794Z,16.20
2019-05-20T04:01:17.190Z,16.20
2019-05-20T04:03:18.586Z,16.23
2019-05-20T04:05:19.978Z,16.27
2019-05-20T04:07:21.373Z,16.35
2019-05-20T04:09:22.739Z,16.44
2019-05-20T04:11:24.136Z,16.36
2019-05-20T04:13:25.497Z,16.36
2019-05-20T04:15:26.907Z,16.30
2019-05-20T04:17:28.263Z,16.29
2019-05-20T04:19:29.639Z,16.33
2019-05-20T04:21:31.027Z,16.47
2019-05-20T04:23:32.385Z,16.48
2019-05-20T04:25:33.742Z,16.61
2019-05-20T04:27:35.417Z,16.58
2019-05-20T04:29:36.773Z,16.58
2019-05-20T04:31:38.136Z,16.55
2019-05-20T04:33:39.518Z,16.34
2019-05-20T04:35:40.864Z,16.51
2019-05-20T04:37:42.529Z,16.54
2019-05-20T04:39:43.935Z,16.59
2019-05-20T04:41:45.327Z,16.45
2019-05-20T04:43:46.679Z,16.55
2019-05-20T04:45:49.072Z,16.39
2019-05-20T04:47:50.464Z,16.41
2019-05-20T04:49:51.821Z,16.64
2019-05-20T04:51:53.211Z,16.44
2019-05-20T04:53:54.606Z,16.50
2019-05-20T04:55:56.006Z,16.47
2019-05-20T04:57:57.402Z,16.41
2019-05-20T04:59:58.759Z,16.60
2019-05-20T05:02:00.360Z,16.63
2019-05-20T05:04:01.739Z,16.65
2019-05-20T05:06:03.093Z,16.69
2019-05-20T05:08:04.496Z,16.80
2019-05-20T05:10:07.656Z,16.76
2019-05-20T05:12:16.247Z,16.88
2019-05-20T05:14:17.603Z,16.82
2019-05-20T05:16:19.066Z,16.90
2019-05-20T05:18:20.661Z,16.91
2019-05-20T05:20:22.120Z,16.94
2019-05-20T05:22:23.466Z,16.99
2019-05-20T05:24:24.880Z,17.02
2019-05-20T05:26:26.330Z,17.14
2019-05-20T05:28:27.723Z,17.15
2019-05-20T05:30:29.376Z,16.92
2019-05-20T05:32:42.903Z,16.86
2019-05-20T05:34:44.502Z,16.81
2019-05-20T05:36:45.852Z,16.95
2019-05-20T05:38:47.299Z,17.15
2019-05-20T05:40:48.650Z,17.29
2019-05-20T05:42:50.194Z,17.38
2019-05-20T05:44:51.613Z,17.36
2019-05-20T05:46:52.966Z,17.47
2019-05-20T05:48:54.402Z,17.60
2019-05-20T05:50:55.760Z,17.78
2019-05-20T05:52:57.313Z,17.93
2019-05-20T05:54:58.716Z,18.11
2019-05-20T05:57:00.069Z,18.06
2019-05-20T05:59:04.346Z,18.13
2019-05-20T06:01:05.754Z,18.38
2019-05-20T06:03:07.227Z,18.38
2019-05-20T06:05:09.575Z,18.71
2019-05-20T06:07:10.982Z,19.13
2019-05-20T06:09:12.341Z,19.60
2019-05-20T06:11:13.803Z,20.00
2019-05-20T06:13:15.156Z,20.06
2019-05-20T06:15:17.459Z,20.38
2019-05-20T06:17:18.862Z,20.96
2019-05-20T06:19:20.222Z,21.28
2019-05-20T06:21:21.582Z,21.31
2019-05-20T06:23:22.986Z,21.56
2019-05-20T06:25:24.343Z,21.94
2019-05-20T06:27:25.702Z,22.23
2019-05-20T06:29:27.095Z,22.34
2019-05-20T06:31:28.456Z,22.90
2019-05-20T06:33:29.859Z,22.96
2019-05-20T06:35:31.303Z,23.51
2019-05-20T06:37:35.075Z,23.61
2019-05-20T06:39:36.503Z,23.48
2019-05-20T06:41:39.799Z,23.31
2019-05-20T06:43:41.207Z,23.68
2019-05-20T06:45:42.641Z,23.51
2019-05-20T06:47:44.015Z,23.57
2019-05-20T06:49:45.389Z,23.99
2019-05-20T06:51:46.843Z,23.24
2019-05-20T06:53:48.292Z,23.23
2019-05-20T06:55:49.664Z,22.71
2019-05-20T06:57:51.145Z,22.96
2019-05-20T06:59:52.534Z,23.58
2019-05-20T07:01:54.697Z,24.27
2019-05-20T07:03:56.065Z,24.41
2019-05-20T07:05:57.452Z,24.83
2019-05-20T07:08:01.299Z,24.90
2019-05-20T07:10:06.551Z,24.51
2019-05-20T07:12:07.939Z,24.86
2019-05-20T07:14:09.295Z,25.61
2019-05-20T07:16:10.674Z,25.82
2019-05-20T07:18:12.107Z,25.97
2019-05-20T07:20:13.968Z,26.10
2019-05-20T07:22:15.321Z,26.42
2019-05-20T07:24:16.744Z,26.28
2019-05-20T07:26:18.105Z,26.41
2019-05-20T07:28:19.470Z,26.34
2019-05-20T07:30:21.276Z,26.12
2019-05-20T07:32:22.634Z,26.11
2019-05-20T07:34:24.070Z,26.22
2019-05-20T07:36:25.514Z,26.13
2019-05-20T07:38:26.956Z,25.82
2019-05-20T07:40:30.459Z,25.40
2019-05-20T07:42:31.873Z,25.52
2019-05-20T07:44:33.441Z,25.42
2019-05-20T07:46:34.931Z,25.58
2019-05-20T07:48:37.659Z,25.14
2019-05-20T07:50:40.499Z,24.86
2019-05-20T07:52:41.855Z,25.06
2019-05-20T07:54:44.741Z,25.27
2019-05-20T07:56:49.062Z,24.46
2019-05-20T07:58:55.627Z,24.16
2019-05-20T08:00:57.084Z,23.99
2019-05-20T08:02:58.504Z,23.92
2019-05-20T08:05:00.069Z,23.69
2019-05-20T08:07:01.596Z,23.79
2019-05-20T08:09:06.226Z,23.96
2019-05-20T08:11:07.574Z,24.11
2019-05-20T08:13:08.933Z,24.68
2019-05-20T08:15:10.751Z,25.03
2019-05-20T08:17:12.124Z,25.13
2019-05-20T08:19:13.674Z,25.74
2019-05-20T08:21:15.074Z,25.98
2019-05-20T08:23:16.670Z,26.18
2019-05-20T08:25:18.468Z,25.83
2019-05-20T08:27:19.854Z,25.68
2019-05-20T08:29:21.323Z,25.54
2019-05-20T08:31:22.723Z,25.71
2019-05-20T08:33:24.087Z,25.83
2019-05-20T08:35:25.475Z,26.10
2019-05-20T08:37:42.138Z,26.27
2019-05-20T08:39:30.192Z,26.13
2019-05-20T08:41:31.733Z,25.99
2019-05-20T08:43:33.151Z,25.91
2019-05-20T08:45:34.547Z,26.32
2019-05-20T08:47:35.905Z,26.28
2019-05-20T08:49:37.413Z,26.29
2019-05-20T08:51:39.115Z,26.69
2019-05-20T08:53:40.600Z,26.79
2019-05-20T08:55:42.064Z,26.40
2019-05-20T08:57:43.514Z,26.73
2019-05-20T08:59:44.976Z,25.96
2019-05-20T09:01:46.368Z,26.45
2019-05-20T09:03:47.762Z,26.58
2019-05-20T09:05:49.822Z,26.77
2019-05-20T09:08:02.507Z,26.70
2019-05-20T09:09:54.510Z,26.61
2019-05-20T09:11:55.880Z,26.82
2019-05-20T09:13:57.288Z,26.91
2019-05-20T09:15:58.644Z,26.97
2019-05-20T09:18:00.202Z,26.98
2019-05-20T09:20:05.028Z,26.59
2019-05-20T09:22:06.464Z,26.67
2019-05-20T09:24:07.834Z,26.58
2019-05-20T09:26:09.236Z,26.65
2019-05-20T09:28:10.620Z,27.02
2019-05-20T09:30:12.534Z,27.07
2019-05-20T09:32:14.084Z,27.26
2019-05-20T09:34:15.746Z,27.34
2019-05-20T09:36:17.250Z,26.63
2019-05-20T09:38:21.124Z,27.07
2019-05-20T09:40:41.770Z,27.50
2019-05-20T09:42:43.394Z,27.33
2019-05-20T09:44:44.991Z,27.77
2019-05-20T09:46:46.338Z,27.75
2019-05-20T09:48:47.736Z,27.75
2019-05-20T09:50:49.119Z,27.73
2019-05-20T09:52:50.657Z,27.88
2019-05-20T09:54:52.098Z,28.34
2019-05-20T09:56:53.489Z,28.36
2019-05-20T09:58:54.886Z,28.31
2019-05-20T10:00:56.390Z,28.78
2019-05-20T10:02:57.841Z,28.31
2019-05-20T10:04:59.212Z,27.99
2019-05-20T10:07:06.672Z,28.27
2019-05-20T10:09:08.074Z,28.68
2019-05-20T10:11:09.477Z,28.31
2019-05-20T10:13:10.898Z,28.37
2019-05-20T10:15:12.550Z,27.77
2019-05-20T10:17:13.904Z,27.36
2019-05-20T10:19:15.298Z,26.93
2019-05-20T10:21:16.648Z,26.99
2019-05-20T10:23:18.034Z,27.11
2019-05-20T10:25:19.525Z,26.62
2019-05-20T10:27:20.903Z,26.69
2019-05-20T10:29:22.347Z,27.02
2019-05-20T10:31:23.779Z,27.11
2019-05-20T10:33:25.251Z,27.35
2019-05-20T10:35:26.621Z,26.94
2019-05-20T10:37:27.993Z,27.12
2019-05-20T10:39:29.375Z,26.86
2019-05-20T10:41:30.762Z,26.76
2019-05-20T10:43:32.132Z,26.76
2019-05-20T10:45:33.743Z,26.59
2019-05-20T10:47:35.114Z,26.63
2019-05-20T10:49:36.523Z,27.31
2019-05-20T10:51:37.923Z,27.29
2019-05-20T10:53:39.277Z,27.00
2019-05-20T10:55:40.697Z,26.95
2019-05-20T10:57:42.038Z,27.12
2019-05-20T10:59:43.399Z,26.53
2019-05-20T11:01:44.806Z,26.56
2019-05-20T11:03:46.238Z,26.88
2019-05-20T11:05:47.607Z,26.55
2019-05-20T11:07:49.044Z,26.31
2019-05-20T11:09:50.588Z,26.61
2019-05-20T11:11:52.006Z,26.54
2019-05-20T11:13:53.369Z,26.34
2019-05-20T11:15:54.740Z,26.46
2019-05-20T11:17:56.129Z,26.22
2019-05-20T11:19:57.550Z,26.37
2019-05-20T11:21:58.954Z,26.05
2019-05-20T11:24:00.391Z,26.10
2019-05-20T11:26:01.780Z,26.35
2019-05-20T11:28:03.393Z,26.53
2019-05-20T11:30:08.463Z,26.54
2019-05-20T11:32:09.835Z,26.51
2019-05-20T11:34:11.237Z,26.75
2019-05-20T11:36:12.589Z,26.67
2019-05-20T11:38:13.943Z,27.03
2019-05-20T11:40:16.143Z,26.77
2019-05-20T11:42:17.537Z,26.95
2019-05-20T11:44:18.890Z,26.96
2019-05-20T11:46:20.244Z,27.15
2019-05-20T11:48:21.642Z,27.43
2019-05-20T11:50:22.996Z,27.57
2019-05-20T11:52:24.358Z,28.28
2019-05-20T11:54:25.867Z,28.51
2019-05-20T11:56:27.381Z,27.85
2019-05-20T11:58:28.747Z,27.93
2019-05-20T12:00:30.176Z,27.35
2019-05-20T12:02:31.598Z,27.14
2019-05-20T12:04:32.995Z,27.23
2019-05-20T12:06:34.386Z,27.08
2019-05-20T12:08:35.795Z,27.11
2019-05-20T12:10:37.158Z,26.97
2019-05-20T12:12:38.554Z,27.24
2019-05-20T12:14:40.520Z,27.18
2019-05-20T12:16:41.871Z,26.78
2019-05-20T12:18:45.225Z,26.42
2019-05-20T12:20:46.524Z,26.54
2019-05-20T12:22:47.879Z,26.64
2019-05-20T12:24:51.690Z,26.43
2019-05-20T12:26:52.535Z,26.65
2019-05-20T12:28:53.952Z,26.82
2019-05-20T12:30:55.371Z,26.58
2019-05-20T12:33:17.325Z,26.17
2019-05-20T12:35:00.303Z,26.11
2019-05-20T12:37:01.807Z,26.24
2019-05-20T12:39:05.308Z,26.14
2019-05-20T12:41:06.756Z,26.49
2019-05-20T12:43:08.106Z,26.40
2019-05-20T12:45:10.201Z,26.02
2019-05-20T12:47:11.554Z,26.61
2019-05-20T12:49:13.027Z,26.11
2019-05-20T12:51:14.966Z,26.46
2019-05-20T12:53:16.568Z,26.43
2019-05-20T12:55:18.079Z,26.03
2019-05-20T12:57:19.475Z,26.19
2019-05-20T12:59:20.963Z,25.83
2019-05-20T13:01:22.330Z,25.73
2019-05-20T13:03:23.712Z,25.68
2019-05-20T13:05:25.208Z,25.78
2019-05-20T13:07:26.613Z,26.01
2019-05-20T13:09:28.088Z,25.78
2019-05-20T13:11:29.447Z,25.70
2019-05-20T13:13:30.932Z,25.34
2019-05-20T13:15:32.425Z,25.46
2019-05-20T13:17:33.930Z,25.24
2019-05-20T13:19:35.564Z,25.13
2019-05-20T13:21:36.961Z,25.14
2019-05-20T13:23:38.371Z,25.14
2019-05-20T13:25:39.758Z,25.07
2019-05-20T13:27:41.144Z,25.24
2019-05-20T13:29:42.503Z,25.20
2019-05-20T13:31:43.888Z,25.38
2019-05-20T13:33:45.242Z,25.06
2019-05-20T13:35:46.634Z,25.33
2019-05-20T13:37:48.053Z,25.14
2019-05-20T13:39:49.411Z,24.90
2019-05-20T13:41:50.762Z,24.87
2019-05-20T13:43:52.167Z,24.89
2019-05-20T13:45:53.525Z,24.77
2019-05-20T13:47:54.942Z,24.93
2019-05-20T13:49:56.372Z,24.83
2019-05-20T13:51:57.737Z,24.74
2019-05-20T13:53:59.110Z,24.61
2019-05-20T13:56:00.528Z,24.54
2019-05-20T13:58:02.090Z,24.32
2019-05-20T14:00:05.516Z,24.09
2019-05-20T14:02:07.246Z,24.13
2019-05-20T14:04:08.653Z,24.09
2019-05-20T14:06:10.061Z,24.11
2019-05-20T14:08:11.523Z,24.18
2019-05-20T14:10:13.514Z,23.77
2019-05-20T14:12:14.924Z,23.56
2019-05-20T14:14:16.277Z,23.27
2019-05-20T14:16:17.630Z,23.02
2019-05-20T14:18:19.034Z,22.75
2019-05-20T14:20:20.634Z,22.51
2019-05-20T14:22:22.003Z,22.38
2019-05-20T14:24:23.420Z,22.31
2019-05-20T14:26:24.787Z,22.25
2019-05-20T14:28:26.619Z,22.11
2019-05-20T14:30:28.018Z,21.95
2019-05-20T14:32:29.370Z,21.89
2019-05-20T14:34:30.737Z,21.82
2019-05-20T14:36:40.354Z,21.58
2019-05-20T14:38:35.377Z,21.64
2019-05-20T14:40:36.733Z,21.54
2019-05-20T14:42:38.278Z,21.55
2019-05-20T14:44:39.690Z,21.34
2019-05-20T14:46:41.111Z,21.15
2019-05-20T14:48:42.502Z,20.98
2019-05-20T14:50:43.866Z,20.86
2019-05-20T14:52:45.278Z,20.67
2019-05-20T14:54:46.638Z,20.50
2019-05-20T14:56:47.985Z,20.41
2019-05-20T14:58:49.389Z,20.24
2019-05-20T15:00:50.767Z,20.15
2019-05-20T15:02:52.327Z,20.09
2019-05-20T15:04:53.725Z,20.03
2019-05-20T15:06:55.141Z,20.06
2019-05-20T15:08:56.492Z,20.06
2019-05-20T15:10:57.849Z,20.05
2019-05-20T15:12:59.264Z,20.06
2019-05-20T15:15:00.614Z,19.99
2019-05-20T15:17:02.017Z,19.94
2019-05-20T15:19:03.433Z,19.88
2019-05-20T15:21:04.792Z,19.78
2019-05-20T15:23:06.254Z,19.78
2019-05-20T15:25:08.073Z,19.76
2019-05-20T15:27:09.434Z,19.72
2019-05-20T15:29:27.015Z,19.74
2019-05-20T15:31:14.101Z,19.62
2019-05-20T15:33:15.466Z,19.63
2019-05-20T15:35:17.034Z,19.69
2019-05-20T15:37:18.419Z,19.78
2019-05-20T15:39:19.788Z,19.69
2019-05-20T15:41:21.151Z,19.67
2019-05-20T15:43:22.546Z,19.66
2019-05-20T15:45:23.947Z,19.76
2019-05-20T15:47:25.299Z,19.69
2019-05-20T15:49:26.717Z,19.54
2019-05-20T15:51:28.080Z,19.59
2019-05-20T15:53:29.479Z,19.61
2019-05-20T15:55:30.960Z,19.63
2019-05-20T15:57:32.313Z,19.62
2019-05-20T15:59:45.509Z,19.79
2019-05-20T16:01:37.006Z,19.70
2019-05-20T16:03:38.354Z,19.69
2019-05-20T16:05:39.712Z,19.60
2019-05-20T16:07:41.115Z,19.45
2019-05-20T16:09:42.464Z,19.43
2019-05-20T16:11:43.827Z,19.30
2019-05-20T16:13:45.213Z,19.29
2019-05-20T16:15:46.570Z,19.12
2019-05-20T16:17:48.815Z,19.05
2019-05-20T16:19:50.416Z,18.95
2019-05-20T16:21:51.833Z,18.94
2019-05-20T16:23:53.182Z,18.82
2019-05-20T16:25:54.598Z,18.64
2019-05-20T16:27:56.163Z,18.59
2019-05-20T16:30:06.230Z,18.57
2019-05-20T16:32:00.821Z,18.49
2019-05-20T16:34:02.190Z,18.37
2019-05-20T16:36:03.942Z,18.41
2019-05-20T16:38:05.306Z,18.44
2019-05-20T16:40:07.794Z,18.50
2019-05-20T16:42:09.174Z,18.47
2019-05-20T16:44:10.523Z,18.55
2019-05-20T16:46:11.892Z,18.60
2019-05-20T16:48:13.309Z,18.61
2019-05-20T16:50:16.858Z,18.67
2019-05-20T16:52:18.216Z,18.69
2019-05-20T16:54:19.625Z,18.73
2019-05-20T16:56:20.991Z,18.81
2019-05-20T16:58:22.343Z,18.76
2019-05-20T17:00:31.225Z,18.80
2019-05-20T17:02:27.307Z,18.83
2019-05-20T17:04:29.107Z,18.85
2019-05-20T17:06:30.495Z,18.91
2019-05-20T17:08:32.051Z,18.92
2019-05-20T17:10:33.437Z,18.92
2019-05-20T17:12:34.811Z,19.03
2019-05-20T17:14:36.173Z,19.04
2019-05-20T17:16:37.599Z,19.21
2019-05-20T17:18:39.013Z,19.40
2019-05-20T17:20:40.386Z,19.39
2019-05-20T17:22:41.784Z,19.45
2019-05-20T17:24:43.246Z,19.53
2019-05-20T17:26:44.741Z,19.53
2019-05-20T17:28:46.139Z,19.50
2019-05-20T17:30:47.497Z,19.52
2019-05-20T17:32:48.851Z,19.45
2019-05-20T17:34:50.246Z,19.37
2019-05-20T17:36:51.613Z,19.33
2019-05-20T17:38:53.006Z,19.35
2019-05-20T17:40:54.372Z,19.28
2019-05-20T17:42:56.023Z,19.16
2019-05-20T17:44:57.716Z,19.26
2019-05-20T17:46:59.103Z,19.26
2019-05-20T17:49:00.461Z,19.25
2019-05-20T17:51:02.043Z,19.17
2019-05-20T17:53:03.433Z,19.30
2019-05-20T17:55:05.827Z,19.21
2019-05-20T17:57:07.521Z,19.26
2019-05-20T17:59:08.871Z,19.28
2019-05-20T18:01:15.469Z,19.23
2019-05-20T18:03:13.547Z,19.25
2019-05-20T18:05:15.491Z,19.29
2019-05-20T18:07:16.839Z,19.19
2019-05-20T18:09:19.768Z,19.22
2019-05-20T18:11:21.138Z,19.30
2019-05-20T18:13:22.852Z,19.28
2019-05-20T18:15:24.392Z,19.24
2019-05-20T18:17:25.756Z,19.18
2019-05-20T18:19:27.172Z,19.21
2019-05-20T18:21:28.609Z,19.35
2019-05-20T18:23:30.005Z,19.16
2019-05-20T18:25:31.370Z,19.22
2019-05-20T18:27:32.869Z,19.10
2019-05-20T18:29:34.241Z,19.05
2019-05-20T18:31:35.600Z,19.01
2019-05-20T18:33:36.964Z,19.10
2019-05-20T18:35:38.354Z,19.11
2019-05-20T18:37:54.816Z,19.00
2019-05-20T18:39:56.180Z,19.04
2019-05-20T18:41:57.570Z,18.99
2019-05-20T18:43:58.945Z,19.01
2019-05-20T18:46:00.300Z,19.00
2019-05-20T18:48:01.707Z,19.05
2019-05-20T18:50:08.154Z,19.03
2019-05-20T18:52:09.505Z,19.00
2019-05-20T18:54:10.934Z,19.01
2019-05-20T18:56:13.047Z,18.98
2019-05-20T18:58:14.461Z,18.97
2019-05-20T19:00:16.328Z,18.89
2019-05-20T19:02:17.897Z,18.85
2019-05-20T19:04:19.297Z,18.85
2019-05-20T19:06:20.658Z,18.80
2019-05-20T19:08:25.201Z,18.84
2019-05-20T19:10:25.788Z,18.80
2019-05-20T19:12:27.146Z,18.81
2019-05-20T19:14:28.618Z,18.84
2019-05-20T19:16:30.037Z,18.93
2019-05-20T19:18:31.477Z,18.89
2019-05-20T19:20:32.972Z,18.80
2019-05-20T19:22:34.347Z,18.86
2019-05-20T19:24:35.711Z,18.84
2019-05-20T19:26:37.116Z,18.84
2019-05-20T19:28:38.474Z,18.77
2019-05-20T19:30:39.836Z,18.76
2019-05-20T19:32:41.229Z,18.74
2019-05-20T19:34:42.592Z,18.77
2019-05-20T19:36:44.000Z,18.82
2019-05-20T19:38:45.434Z,18.84
2019-05-20T19:40:46.819Z,18.80
2019-05-20T19:42:48.173Z,18.78
2019-05-20T19:44:49.532Z,18.73
2019-05-20T19:46:50.971Z,18.66
2019-05-20T19:48:52.326Z,18.64
2019-05-20T19:50:53.691Z,18.65
2019-05-20T19:52:55.201Z,18.56
2019-05-20T19:54:56.740Z,18.63
2019-05-20T19:56:58.400Z,18.63
2019-05-20T19:58:59.758Z,18.60
2019-05-20T20:01:03.918Z,18.48
2019-05-20T20:03:05.465Z,18.44
2019-05-20T20:05:07.362Z,18.53
2019-05-20T20:07:08.717Z,18.50
2019-05-20T20:09:10.120Z,18.36
2019-05-20T20:11:11.491Z,18.25
2019-05-20T20:13:12.936Z,18.18
2019-05-20T20:15:16.637Z,18.28
2019-05-20T20:17:18.028Z,18.27
2019-05-20T20:19:19.392Z,18.24
2019-05-20T20:21:20.753Z,18.18
2019-05-20T20:23:22.174Z,18.08
2019-05-20T20:25:23.543Z,18.05
2019-05-20T20:27:24.968Z,18.03
2019-05-20T20:29:26.328Z,18.02
2019-05-20T20:31:27.689Z,17.98
2019-05-20T20:33:29.086Z,17.91
2019-05-20T20:35:38.102Z,17.98
2019-05-20T20:37:33.749Z,17.95
2019-05-20T20:39:35.142Z,17.80
2019-05-20T20:41:36.492Z,17.82
2019-05-20T20:43:40.663Z,17.78
2019-05-20T20:45:42.063Z,17.77
2019-05-20T20:47:43.416Z,17.65
2019-05-20T20:49:44.774Z,17.67
2019-05-20T20:51:46.164Z,17.62
2019-05-20T20:53:47.521Z,17.51
2019-05-20T20:55:49.254Z,17.52
2019-05-20T20:57:51.010Z,17.49
2019-05-20T20:59:52.362Z,17.33
2019-05-20T21:01:56.757Z,17.31
2019-05-20T21:03:57.025Z,17.24
2019-05-20T21:05:58.384Z,17.25
2019-05-20T21:07:59.749Z,17.21
2019-05-20T21:10:02.133Z,17.11
2019-05-20T21:12:03.651Z,16.97
2019-05-20T21:14:05.044Z,16.88
2019-05-20T21:16:06.397Z,16.83
2019-05-20T21:18:07.781Z,16.76
2019-05-20T21:20:09.495Z,16.85
2019-05-20T21:22:11.184Z,16.99
2019-05-20T21:24:12.613Z,16.94
2019-05-20T21:26:14.014Z,16.76
2019-05-20T21:28:15.417Z,16.65
2019-05-20T21:30:16.776Z,16.69
2019-05-20T21:32:18.562Z,16.73
2019-05-20T21:34:20.061Z,16.74
2019-05-20T21:36:21.448Z,16.52
2019-05-20T21:38:22.804Z,16.41
2019-05-20T21:40:24.225Z,16.40
2019-05-20T21:42:25.585Z,16.40
2019-05-20T21:44:26.956Z,16.33
2019-05-20T21:46:28.964Z,16.13
2019-05-20T21:48:31.438Z,16.20
2019-05-20T21:50:34.039Z,16.18
2019-05-20T21:52:36.395Z,16.10
2019-05-20T21:54:39.225Z,16.07
2019-05-20T21:56:44.762Z,15.99
2019-05-20T21:58:47.472Z,15.75
2019-05-20T22:00:51.314Z,16.02
2019-05-20T22:02:54.812Z,16.26
2019-05-20T22:04:56.710Z,16.31
2019-05-20T22:06:58.198Z,16.19
2019-05-20T22:09:00.225Z,16.11
2019-05-20T22:11:01.975Z,16.02
2019-05-20T22:13:05.854Z,15.91
2019-05-20T22:15:08.513Z,15.89
2019-05-20T22:17:10.832Z,15.93
2019-05-20T22:19:15.551Z,15.93
2019-05-20T22:21:20.184Z,15.96
2019-05-20T22:23:27.353Z,15.92
2019-05-20T22:25:29.990Z,15.88
2019-05-20T22:27:31.687Z,15.91
2019-05-20T22:29:34.342Z,15.76
2019-05-20T22:31:36.533Z,15.75
2019-05-20T22:33:42.364Z,15.73
2019-05-20T22:35:43.307Z,15.75
2019-05-20T22:37:45.052Z,15.65
2019-05-20T22:39:47.127Z,15.63
2019-05-20T22:41:48.976Z,15.61
2019-05-20T22:43:50.742Z,15.57
2019-05-20T22:45:53.258Z,15.52
2019-05-20T22:47:55.364Z,15.41
2019-05-20T22:49:56.914Z,15.40
2019-05-20T22:51:58.358Z,15.39
2019-05-20T22:54:00.359Z,15.41
2019-05-20T22:56:02.165Z,15.38
2019-05-20T22:58:07.437Z,15.33
2019-05-20T23:00:09.673Z,15.31
2019-05-20T23:02:12.003Z,15.24
2019-05-20T23:04:14.621Z,15.29
2019-05-20T23:06:17.079Z,15.28
2019-05-20T23:08:18.610Z,15.16
2019-05-20T23:10:20.489Z,15.27
2019-05-20T23:12:22.829Z,15.35
2019-05-20T23:14:24.422Z,15.31
2019-05-20T23:16:26.381Z,15.29
2019-05-20T23:18:29.648Z,15.29
2019-05-20T23:20:32.341Z,15.30
2019-05-20T23:22:34.401Z,15.21
2019-05-20T23:24:37.369Z,15.21
2019-05-20T23:26:39.184Z,15.23
2019-05-20T23:28:40.547Z,15.27
2019-05-20T23:30:42.018Z,15.15
2019-05-20T23:32:43.410Z,15.22
2019-05-20T23:34:44.798Z,15.13
2019-05-20T23:36:46.146Z,15.08
2019-05-20T23:38:47.549Z,15.10
2019-05-20T23:40:48.905Z,15.07
2019-05-20T23:42:50.259Z,15.06
2019-05-20T23:44:51.663Z,15.12
2019-05-20T23:46:53.006Z,14.96
2019-05-20T23:48:54.363Z,14.98
2019-05-20T23:50:55.780Z,15.02
2019-05-20T23:52:57.151Z,14.95
2019-05-20T23:54:58.514Z,14.90
2019-05-20T23:56:59.913Z,14.85
2019-05-20T23:59:01.303Z,14.84
